sensor_id;sensor_type;location;lat;lon;timestamp;pressure;altitude;pressure_sealevel;temperature;humidity
51526;BME280;37611;51.794;21.590;2023-06-14T00:02:57;100066.24;;;12.06;100.00
51526;BME280;37611;51.794;21.590;2023-06-14T00:06:59;100059.58;;;12.08;100.00
51526;BME280;37611;51.794;21.590;2023-06-14T00:11:01;100059.27;;;12.09;100.00
51526;BME280;37611;51.794;21.590;2023-06-14T00:15:03;100052.63;;;12.08;100.00
51526;BME280;37611;51.794;21.590;2023-06-14T00:19:05;100057.98;;;12.08;100.00
51526;BME280;37611;51.794;21.590;2023-06-14T00:23:07;100057.27;;;12.09;100.00
51526;BME280;37611;51.794;21.590;2023-06-14T00:27:09;100055.42;;;12.08;100.00
51526;BME280;37611;51.794;21.590;2023-06-14T00:31:11;100056.80;;;12.08;100.00
51526;BME280;37611;51.794;21.590;2023-06-14T00:35:13;100056.49;;;12.10;100.00
51526;BME280;37611;51.794;21.590;2023-06-14T00:39:15;100058.83;;;12.11;100.00
51526;BME280;37611;51.794;21.590;2023-06-14T00:43:17;100058.13;;;12.09;100.00
51526;BME280;37611;51.794;21.590;2023-06-14T00:47:19;100055.64;;;12.08;100.00
51526;BME280;37611;51.794;21.590;2023-06-14T00:51:22;100053.75;;;12.09;100.00
51526;BME280;37611;51.794;21.590;2023-06-14T00:55:23;100055.52;;;12.11;100.00
51526;BME280;37611;51.794;21.590;2023-06-14T00:59:25;100053.36;;;12.13;100.00
51526;BME280;37611;51.794;21.590;2023-06-14T01:03:27;100049.41;;;12.14;100.00
51526;BME280;37611;51.794;21.590;2023-06-14T01:12:03;100043.48;;;12.17;100.00
51526;BME280;37611;51.794;21.590;2023-06-14T01:16:08;100046.73;;;12.17;100.00
51526;BME280;37611;51.794;21.590;2023-06-14T01:20:12;100046.59;;;12.20;100.00
51526;BME280;37611;51.794;21.590;2023-06-14T01:24:16;100044.30;;;12.24;100.00
51526;BME280;37611;51.794;21.590;2023-06-14T01:28:21;100042.81;;;12.24;100.00
51526;BME280;37611;51.794;21.590;2023-06-14T01:32:27;100049.14;;;12.24;100.00
51526;BME280;37611;51.794;21.590;2023-06-14T01:36:29;100042.16;;;12.24;100.00
51526;BME280;37611;51.794;21.590;2023-06-14T01:40:33;100036.83;;;12.23;100.00
51526;BME280;37611;51.794;21.590;2023-06-14T01:44:37;100034.29;;;12.21;100.00
51526;BME280;37611;51.794;21.590;2023-06-14T01:48:39;100038.66;;;12.19;100.00
51526;BME280;37611;51.794;21.590;2023-06-14T01:52:41;100039.18;;;12.17;100.00
51526;BME280;37611;51.794;21.590;2023-06-14T01:56:43;100040.83;;;12.17;100.00
51526;BME280;37611;51.794;21.590;2023-06-14T02:00:44;100036.15;;;12.15;100.00
51526;BME280;37611;51.794;21.590;2023-06-14T02:04:46;100038.41;;;12.13;100.00
51526;BME280;37611;51.794;21.590;2023-06-14T02:08:48;100040.89;;;12.13;100.00
51526;BME280;37611;51.794;21.590;2023-06-14T02:12:51;100036.18;;;12.13;100.00
51526;BME280;37611;51.794;21.590;2023-06-14T02:16:53;100030.95;;;12.12;100.00
51526;BME280;37611;51.794;21.590;2023-06-14T02:20:55;100031.94;;;12.10;100.00
51526;BME280;37611;51.794;21.590;2023-06-14T02:24:56;100031.99;;;12.08;100.00
51526;BME280;37611;51.794;21.590;2023-06-14T02:28:58;100027.99;;;12.07;100.00
51526;BME280;37611;51.794;21.590;2023-06-14T02:33:00;100027.50;;;12.05;100.00
51526;BME280;37611;51.794;21.590;2023-06-14T02:37:02;100023.81;;;12.05;100.00
51526;BME280;37611;51.794;21.590;2023-06-14T02:41:04;100025.73;;;12.07;100.00
51526;BME280;37611;51.794;21.590;2023-06-14T02:45:08;100025.29;;;12.10;100.00
51526;BME280;37611;51.794;21.590;2023-06-14T02:49:11;100021.40;;;12.10;100.00
51526;BME280;37611;51.794;21.590;2023-06-14T02:53:12;100023.92;;;12.11;100.00
51526;BME280;37611;51.794;21.590;2023-06-14T02:57:14;100019.42;;;12.14;100.00
51526;BME280;37611;51.794;21.590;2023-06-14T03:01:16;100025.48;;;12.14;100.00
51526;BME280;37611;51.794;21.590;2023-06-14T03:05:18;100024.54;;;12.15;100.00
51526;BME280;37611;51.794;21.590;2023-06-14T03:09:22;100023.96;;;12.17;100.00
51526;BME280;37611;51.794;21.590;2023-06-14T03:13:24;100024.73;;;12.16;100.00
51526;BME280;37611;51.794;21.590;2023-06-14T03:17:26;100019.36;;;12.16;100.00
51526;BME280;37611;51.794;21.590;2023-06-14T03:21:31;100021.02;;;12.17;100.00
51526;BME280;37611;51.794;21.590;2023-06-14T03:25:33;100019.54;;;12.19;100.00
51526;BME280;37611;51.794;21.590;2023-06-14T03:29:37;100025.59;;;12.25;100.00
51526;BME280;37611;51.794;21.590;2023-06-14T03:33:39;100025.14;;;12.29;100.00
51526;BME280;37611;51.794;21.590;2023-06-14T03:37:41;100025.50;;;12.36;100.00
51526;BME280;37611;51.794;21.590;2023-06-14T03:41:43;100029.90;;;12.40;100.00
51526;BME280;37611;51.794;21.590;2023-06-14T03:45:44;100026.98;;;12.41;100.00
51526;BME280;37611;51.794;21.590;2023-06-14T03:49:46;100028.46;;;12.41;100.00
51526;BME280;37611;51.794;21.590;2023-06-14T03:53:48;100026.02;;;12.42;100.00
51526;BME280;37611;51.794;21.590;2023-06-14T03:57:53;100023.06;;;12.42;100.00
51526;BME280;37611;51.794;21.590;2023-06-14T04:01:55;100026.55;;;12.42;100.00
51526;BME280;37611;51.794;21.590;2023-06-14T04:05:56;100026.02;;;12.44;100.00
51526;BME280;37611;51.794;21.590;2023-06-14T04:10:01;100022.27;;;12.51;100.00
51526;BME280;37611;51.794;21.590;2023-06-14T04:14:03;100025.96;;;12.56;100.00
51526;BME280;37611;51.794;21.590;2023-06-14T04:18:05;100031.96;;;12.56;100.00
51526;BME280;37611;51.794;21.590;2023-06-14T04:22:07;100031.73;;;12.58;100.00
51526;BME280;37611;51.794;21.590;2023-06-14T04:26:08;100037.98;;;12.59;100.00
51526;BME280;37611;51.794;21.590;2023-06-14T04:30:12;100040.78;;;12.59;100.00
51526;BME280;37611;51.794;21.590;2023-06-14T04:34:14;100035.14;;;12.61;100.00
51526;BME280;37611;51.794;21.590;2023-06-14T04:38:19;100033.42;;;12.65;100.00
51526;BME280;37611;51.794;21.590;2023-06-14T04:42:26;100036.90;;;12.69;100.00
51526;BME280;37611;51.794;21.590;2023-06-14T04:46:32;100038.71;;;12.73;100.00
51526;BME280;37611;51.794;21.590;2023-06-14T04:50:33;100029.16;;;12.72;100.00
51526;BME280;37611;51.794;21.590;2023-06-14T04:54:36;100028.67;;;12.73;100.00
51526;BME280;37611;51.794;21.590;2023-06-14T04:58:44;100028.70;;;12.78;100.00
51526;BME280;37611;51.794;21.590;2023-06-14T05:02:45;100023.16;;;12.85;100.00
51526;BME280;37611;51.794;21.590;2023-06-14T05:06:48;100030.63;;;12.96;100.00
51526;BME280;37611;51.794;21.590;2023-06-14T05:10:50;100031.44;;;13.08;100.00
51526;BME280;37611;51.794;21.590;2023-06-14T05:14:52;100037.33;;;13.20;100.00
51526;BME280;37611;51.794;21.590;2023-06-14T05:18:54;100037.42;;;13.31;100.00
51526;BME280;37611;51.794;21.590;2023-06-14T05:22:56;100031.90;;;13.53;100.00
51526;BME280;37611;51.794;21.590;2023-06-14T05:26:58;100029.67;;;13.76;100.00
51526;BME280;37611;51.794;21.590;2023-06-14T05:31:00;100027.09;;;13.87;100.00
51526;BME280;37611;51.794;21.590;2023-06-14T05:35:02;100019.23;;;13.92;100.00
51526;BME280;37611;51.794;21.590;2023-06-14T05:39:04;100011.70;;;14.05;100.00
51526;BME280;37611;51.794;21.590;2023-06-14T05:43:07;100010.48;;;14.24;100.00
51526;BME280;37611;51.794;21.590;2023-06-14T05:47:08;100004.60;;;14.68;100.00
51526;BME280;37611;51.794;21.590;2023-06-14T05:51:10;100011.30;;;15.18;100.00
51526;BME280;37611;51.794;21.590;2023-06-14T05:55:13;100018.84;;;15.58;100.00
51526;BME280;37611;51.794;21.590;2023-06-14T05:59:14;100022.48;;;15.95;100.00
51526;BME280;37611;51.794;21.590;2023-06-14T06:03:16;100026.80;;;16.32;100.00
51526;BME280;37611;51.794;21.590;2023-06-14T06:07:18;100029.92;;;16.61;100.00
51526;BME280;37611;51.794;21.590;2023-06-14T06:11:19;100029.23;;;16.88;100.00
51526;BME280;37611;51.794;21.590;2023-06-14T06:15:21;100035.67;;;17.17;100.00
51526;BME280;37611;51.794;21.590;2023-06-14T06:19:23;100044.48;;;17.29;100.00
51526;BME280;37611;51.794;21.590;2023-06-14T06:23:25;100048.44;;;17.23;100.00
51526;BME280;37611;51.794;21.590;2023-06-14T06:27:27;100050.36;;;17.06;100.00
51526;BME280;37611;51.794;21.590;2023-06-14T06:31:29;100054.16;;;16.97;100.00
51526;BME280;37611;51.794;21.590;2023-06-14T06:35:31;100060.06;;;16.99;100.00
51526;BME280;37611;51.794;21.590;2023-06-14T06:39:34;100063.48;;;17.30;100.00
51526;BME280;37611;51.794;21.590;2023-06-14T06:43:36;100072.88;;;17.44;100.00
51526;BME280;37611;51.794;21.590;2023-06-14T06:47:38;100080.56;;;17.51;100.00
51526;BME280;37611;51.794;21.590;2023-06-14T06:51:43;100073.84;;;17.55;100.00
51526;BME280;37611;51.794;21.590;2023-06-14T06:55:45;100067.35;;;17.56;100.00
51526;BME280;37611;51.794;21.590;2023-06-14T06:59:47;100065.58;;;17.48;100.00
51526;BME280;37611;51.794;21.590;2023-06-14T07:03:49;100066.90;;;17.50;100.00
51526;BME280;37611;51.794;21.590;2023-06-14T07:07:51;100070.92;;;17.53;100.00
51526;BME280;37611;51.794;21.590;2023-06-14T07:11:53;100071.43;;;17.57;100.00
51526;BME280;37611;51.794;21.590;2023-06-14T07:15:57;100076.29;;;17.53;99.28
51526;BME280;37611;51.794;21.590;2023-06-14T07:20:00;100077.17;;;17.46;99.96
51526;BME280;37611;51.794;21.590;2023-06-14T07:24:03;100075.30;;;17.69;99.05
51526;BME280;37611;51.794;21.590;2023-06-14T07:28:05;100074.00;;;17.98;98.84
51526;BME280;37611;51.794;21.590;2023-06-14T07:32:07;100080.48;;;18.14;97.54
51526;BME280;37611;51.794;21.590;2023-06-14T07:36:09;100078.23;;;18.00;96.02
51526;BME280;37611;51.794;21.590;2023-06-14T07:40:11;100082.77;;;17.94;96.47
51526;BME280;37611;51.794;21.590;2023-06-14T07:44:14;100083.75;;;18.16;96.01
51526;BME280;37611;51.794;21.590;2023-06-14T07:48:16;100079.79;;;18.49;95.48
51526;BME280;37611;51.794;21.590;2023-06-14T07:52:18;100077.64;;;18.75;94.41
51526;BME280;37611;51.794;21.590;2023-06-14T07:56:19;100076.43;;;19.00;94.00
51526;BME280;37611;51.794;21.590;2023-06-14T08:00:22;100075.31;;;19.16;91.37
51526;BME280;37611;51.794;21.590;2023-06-14T08:04:23;100076.09;;;19.22;86.92
51526;BME280;37611;51.794;21.590;2023-06-14T08:08:26;100072.39;;;19.25;85.00
51526;BME280;37611;51.794;21.590;2023-06-14T08:12:28;100073.27;;;19.24;84.94
51526;BME280;37611;51.794;21.590;2023-06-14T08:16:30;100083.09;;;19.32;84.86
51526;BME280;37611;51.794;21.590;2023-06-14T08:20:32;100076.64;;;19.41;84.46
51526;BME280;37611;51.794;21.590;2023-06-14T08:24:36;100071.83;;;19.49;83.86
51526;BME280;37611;51.794;21.590;2023-06-14T08:28:38;100068.11;;;19.46;82.96
51526;BME280;37611;51.794;21.590;2023-06-14T08:32:40;100066.16;;;19.52;83.94
51526;BME280;37611;51.794;21.590;2023-06-14T08:36:41;100063.23;;;19.69;83.81
51526;BME280;37611;51.794;21.590;2023-06-14T08:40:45;100066.39;;;19.96;82.53
51526;BME280;37611;51.794;21.590;2023-06-14T08:44:49;100071.09;;;20.15;79.93
51526;BME280;37611;51.794;21.590;2023-06-14T08:48:51;100068.85;;;20.33;79.92
51526;BME280;37611;51.794;21.590;2023-06-14T08:52:54;100071.34;;;20.51;79.41
51526;BME280;37611;51.794;21.590;2023-06-14T08:56:58;100072.40;;;20.54;79.93
51526;BME280;37611;51.794;21.590;2023-06-14T09:01:01;100065.04;;;20.47;80.02
51526;BME280;37611;51.794;21.590;2023-06-14T09:05:04;100062.52;;;20.38;80.07
51526;BME280;37611;51.794;21.590;2023-06-14T09:09:06;100059.46;;;20.33;80.34
51526;BME280;37611;51.794;21.590;2023-06-14T09:13:09;100056.19;;;20.24;79.78
51526;BME280;37611;51.794;21.590;2023-06-14T09:17:13;100056.48;;;20.22;78.74
51526;BME280;37611;51.794;21.590;2023-06-14T09:21:16;100061.09;;;20.14;77.28
51526;BME280;37611;51.794;21.590;2023-06-14T09:25:18;100059.84;;;20.24;76.72
51526;BME280;37611;51.794;21.590;2023-06-14T09:29:20;100055.17;;;20.22;75.87
51526;BME280;37611;51.794;21.590;2023-06-14T09:33:22;100051.73;;;20.06;75.51
51526;BME280;37611;51.794;21.590;2023-06-14T09:37:31;100053.34;;;20.02;76.31
51526;BME280;37611;51.794;21.590;2023-06-14T09:41:37;100053.50;;;20.12;75.27
51526;BME280;37611;51.794;21.590;2023-06-14T09:45:39;100051.69;;;20.05;74.86
51526;BME280;37611;51.794;21.590;2023-06-14T09:49:42;100049.69;;;19.83;75.64
51526;BME280;37611;51.794;21.590;2023-06-14T09:53:45;100050.86;;;19.66;76.84
51526;BME280;37611;51.794;21.590;2023-06-14T09:57:50;100054.11;;;19.55;77.88
51526;BME280;37611;51.794;21.590;2023-06-14T10:01:55;100053.42;;;19.52;78.08
51526;BME280;37611;51.794;21.590;2023-06-14T10:06:02;100053.02;;;19.50;77.71
51526;BME280;37611;51.794;21.590;2023-06-14T10:10:07;100047.09;;;19.44;78.70
51526;BME280;37611;51.794;21.590;2023-06-14T10:14:10;100043.82;;;19.56;78.84
51526;BME280;37611;51.794;21.590;2023-06-14T10:18:27;100042.20;;;19.80;77.53
51526;BME280;37611;51.794;21.590;2023-06-14T10:22:39;100040.77;;;19.90;75.51
51526;BME280;37611;51.794;21.590;2023-06-14T10:26:54;100039.11;;;19.96;75.01
51526;BME280;37611;51.794;21.590;2023-06-14T10:35:09;100030.67;;;19.97;73.36
51526;BME280;37611;51.794;21.590;2023-06-14T10:39:18;100027.02;;;20.16;72.45
51526;BME280;37611;51.794;21.590;2023-06-14T10:43:22;100025.43;;;20.32;71.35
51526;BME280;37611;51.794;21.590;2023-06-14T10:47:36;100023.52;;;20.39;70.26
51526;BME280;37611;51.794;21.590;2023-06-14T10:51:42;100025.52;;;20.39;69.96
51526;BME280;37611;51.794;21.590;2023-06-14T10:55:50;100029.71;;;20.45;66.53
51526;BME280;37611;51.794;21.590;2023-06-14T10:59:52;100020.84;;;20.39;67.00
51526;BME280;37611;51.794;21.590;2023-06-14T11:03:56;100026.52;;;20.48;65.41
51526;BME280;37611;51.794;21.590;2023-06-14T11:12:17;100025.42;;;20.73;62.63
51526;BME280;37611;51.794;21.590;2023-06-14T11:16:19;100016.30;;;20.88;62.45
51526;BME280;37611;51.794;21.590;2023-06-14T11:20:24;100017.98;;;21.18;62.24
51526;BME280;37611;51.794;21.590;2023-06-14T11:24:27;100015.75;;;21.28;60.77
51526;BME280;37611;51.794;21.590;2023-06-14T11:28:37;100007.41;;;21.23;60.86
51526;BME280;37611;51.794;21.590;2023-06-14T11:32:39;100004.69;;;21.33;61.88
51526;BME280;37611;51.794;21.590;2023-06-14T11:36:42;99997.32;;;21.47;61.81
51526;BME280;37611;51.794;21.590;2023-06-14T11:40:44;100002.02;;;21.43;61.40
51526;BME280;37611;51.794;21.590;2023-06-14T11:44:46;100013.02;;;21.21;61.74
51526;BME280;37611;51.794;21.590;2023-06-14T11:48:51;100015.18;;;20.73;62.36
51526;BME280;37611;51.794;21.590;2023-06-14T11:52:57;100014.58;;;20.50;63.81
51526;BME280;37611;51.794;21.590;2023-06-14T11:57:01;100017.46;;;20.41;64.36
51526;BME280;37611;51.794;21.590;2023-06-14T12:01:03;100016.69;;;20.21;65.34
51526;BME280;37611;51.794;21.590;2023-06-14T12:05:06;100017.45;;;20.16;66.67
51526;BME280;37611;51.794;21.590;2023-06-14T12:09:11;100018.05;;;20.05;66.89
51526;BME280;37611;51.794;21.590;2023-06-14T12:13:19;100017.25;;;19.94;68.21
51526;BME280;37611;51.794;21.590;2023-06-14T12:17:22;100018.02;;;19.96;67.97
51526;BME280;37611;51.794;21.590;2023-06-14T12:21:24;100016.88;;;19.85;68.14
51526;BME280;37611;51.794;21.590;2023-06-14T12:25:34;100015.50;;;19.81;68.39
51526;BME280;37611;51.794;21.590;2023-06-14T12:29:37;100016.16;;;19.74;68.64
51526;BME280;37611;51.794;21.590;2023-06-14T12:33:40;100013.84;;;19.68;69.12
51526;BME280;37611;51.794;21.590;2023-06-14T12:37:42;100009.95;;;19.61;69.64
51526;BME280;37611;51.794;21.590;2023-06-14T12:41:44;100010.45;;;19.60;70.46
51526;BME280;37611;51.794;21.590;2023-06-14T12:45:46;100010.65;;;19.56;70.50
51526;BME280;37611;51.794;21.590;2023-06-14T12:49:48;100011.73;;;19.50;70.82
51526;BME280;37611;51.794;21.590;2023-06-14T12:53:50;100005.67;;;19.38;71.59
51526;BME280;37611;51.794;21.590;2023-06-14T12:57:51;100007.23;;;19.37;72.07
51526;BME280;37611;51.794;21.590;2023-06-14T13:01:53;100003.59;;;19.37;72.63
51526;BME280;37611;51.794;21.590;2023-06-14T13:05:55;100005.89;;;19.46;72.61
51526;BME280;37611;51.794;21.590;2023-06-14T13:09:57;100005.38;;;19.40;72.92
51526;BME280;37611;51.794;21.590;2023-06-14T13:13:59;100002.27;;;19.36;73.36
51526;BME280;37611;51.794;21.590;2023-06-14T13:18:01;100002.95;;;19.39;73.67
51526;BME280;37611;51.794;21.590;2023-06-14T13:22:05;100005.08;;;19.44;73.91
51526;BME280;37611;51.794;21.590;2023-06-14T13:26:06;100009.15;;;19.42;74.44
51526;BME280;37611;51.794;21.590;2023-06-14T13:30:09;100006.19;;;19.38;75.08
51526;BME280;37611;51.794;21.590;2023-06-14T13:34:11;100006.75;;;19.36;75.19
51526;BME280;37611;51.794;21.590;2023-06-14T13:38:12;100009.35;;;19.30;75.77
51526;BME280;37611;51.794;21.590;2023-06-14T13:42:16;100010.23;;;19.12;76.33
51526;BME280;37611;51.794;21.590;2023-06-14T13:46:18;100004.06;;;19.02;76.86
51526;BME280;37611;51.794;21.590;2023-06-14T13:50:19;100006.88;;;19.04;77.89
51526;BME280;37611;51.794;21.590;2023-06-14T13:54:22;100005.64;;;19.06;78.28
51526;BME280;37611;51.794;21.590;2023-06-14T13:58:23;100008.02;;;19.08;78.74
51526;BME280;37611;51.794;21.590;2023-06-14T14:02:29;100006.02;;;19.08;79.09
51526;BME280;37611;51.794;21.590;2023-06-14T14:06:31;99998.99;;;19.15;78.93
51526;BME280;37611;51.794;21.590;2023-06-14T14:10:33;99994.53;;;19.16;78.43
51526;BME280;37611;51.794;21.590;2023-06-14T14:14:35;99992.13;;;19.10;78.35
51526;BME280;37611;51.794;21.590;2023-06-14T14:18:36;99998.31;;;19.13;78.44
51526;BME280;37611;51.794;21.590;2023-06-14T14:22:39;99998.91;;;19.13;78.31
51526;BME280;37611;51.794;21.590;2023-06-14T14:26:41;99993.02;;;19.17;78.46
51526;BME280;37611;51.794;21.590;2023-06-14T14:30:42;99990.60;;;19.18;78.57
51526;BME280;37611;51.794;21.590;2023-06-14T14:34:44;99996.27;;;19.13;78.84
51526;BME280;37611;51.794;21.590;2023-06-14T14:38:46;99997.35;;;19.03;79.46
51526;BME280;37611;51.794;21.590;2023-06-14T14:42:48;99997.65;;;18.93;79.55
51526;BME280;37611;51.794;21.590;2023-06-14T14:46:50;100001.63;;;18.83;79.80
51526;BME280;37611;51.794;21.590;2023-06-14T14:50:52;100009.27;;;18.74;80.10
51526;BME280;37611;51.794;21.590;2023-06-14T14:54:53;100014.60;;;18.52;80.91
51526;BME280;37611;51.794;21.590;2023-06-14T14:58:55;100016.59;;;18.35;81.59
51526;BME280;37611;51.794;21.590;2023-06-14T15:02:57;100018.57;;;18.18;81.56
51526;BME280;37611;51.794;21.590;2023-06-14T15:06:59;100013.16;;;18.04;81.83
51526;BME280;37611;51.794;21.590;2023-06-14T15:11:01;100008.61;;;17.97;82.15
51526;BME280;37611;51.794;21.590;2023-06-14T15:15:04;100005.77;;;17.88;83.32
51526;BME280;37611;51.794;21.590;2023-06-14T15:19:07;100004.36;;;17.83;84.57
51526;BME280;37611;51.794;21.590;2023-06-14T15:23:09;99996.10;;;17.76;85.36
51526;BME280;37611;51.794;21.590;2023-06-14T15:27:13;99992.10;;;17.68;86.08
51526;BME280;37611;51.794;21.590;2023-06-14T15:31:14;99992.54;;;17.58;87.21
51526;BME280;37611;51.794;21.590;2023-06-14T15:35:17;99990.04;;;17.47;88.24
51526;BME280;37611;51.794;21.590;2023-06-14T15:39:22;99987.63;;;17.39;89.03
51526;BME280;37611;51.794;21.590;2023-06-14T15:43:25;99982.39;;;17.28;89.33
51526;BME280;37611;51.794;21.590;2023-06-14T15:47:26;99981.35;;;17.20;89.60
51526;BME280;37611;51.794;21.590;2023-06-14T15:51:28;99978.34;;;17.13;89.90
51526;BME280;37611;51.794;21.590;2023-06-14T15:55:30;99977.56;;;17.06;90.25
51526;BME280;37611;51.794;21.590;2023-06-14T15:59:32;99983.11;;;16.99;91.04
51526;BME280;37611;51.794;21.590;2023-06-14T16:03:34;99983.20;;;16.93;92.34
51526;BME280;37611;51.794;21.590;2023-06-14T16:07:36;99984.64;;;16.84;92.92
51526;BME280;37611;51.794;21.590;2023-06-14T16:11:38;99979.76;;;16.77;94.41
51526;BME280;37611;51.794;21.590;2023-06-14T16:15:39;99982.90;;;16.70;94.92
51526;BME280;37611;51.794;21.590;2023-06-14T16:19:41;99989.17;;;16.63;95.71
51526;BME280;37611;51.794;21.590;2023-06-14T16:23:44;99988.00;;;16.58;95.88
51526;BME280;37611;51.794;21.590;2023-06-14T16:27:46;99986.55;;;16.56;96.12
51526;BME280;37611;51.794;21.590;2023-06-14T16:31:48;99987.70;;;16.57;96.76
51526;BME280;37611;51.794;21.590;2023-06-14T16:35:50;99986.40;;;16.57;96.66
51526;BME280;37611;51.794;21.590;2023-06-14T16:39:52;99994.30;;;16.56;97.51
51526;BME280;37611;51.794;21.590;2023-06-14T16:43:57;99997.10;;;16.54;97.21
51526;BME280;37611;51.794;21.590;2023-06-14T16:47:59;99997.76;;;16.54;97.88
51526;BME280;37611;51.794;21.590;2023-06-14T16:52:00;99998.86;;;16.54;98.05
51526;BME280;37611;51.794;21.590;2023-06-14T16:56:02;99998.03;;;16.53;98.09
51526;BME280;37611;51.794;21.590;2023-06-14T17:00:05;99997.57;;;16.53;98.55
51526;BME280;37611;51.794;21.590;2023-06-14T17:04:08;99996.11;;;16.50;98.55
51526;BME280;37611;51.794;21.590;2023-06-14T17:08:10;99994.59;;;16.47;98.67
51526;BME280;37611;51.794;21.590;2023-06-14T17:12:11;99991.39;;;16.44;99.20
51526;BME280;37611;51.794;21.590;2023-06-14T17:16:13;99997.90;;;16.43;99.54
51526;BME280;37611;51.794;21.590;2023-06-14T17:20:15;99998.56;;;16.39;99.41
51526;BME280;37611;51.794;21.590;2023-06-14T17:24:18;100002.89;;;16.37;99.70
51526;BME280;37611;51.794;21.590;2023-06-14T17:28:20;100002.56;;;16.32;99.87
51526;BME280;37611;51.794;21.590;2023-06-14T17:32:21;100000.73;;;16.28;99.71
51526;BME280;37611;51.794;21.590;2023-06-14T17:36:23;100004.33;;;16.24;99.80
51526;BME280;37611;51.794;21.590;2023-06-14T17:40:25;100006.30;;;16.18;99.69
51526;BME280;37611;51.794;21.590;2023-06-14T17:44:26;100005.60;;;16.13;99.75
51526;BME280;37611;51.794;21.590;2023-06-14T17:48:28;100008.02;;;16.11;99.75
51526;BME280;37611;51.794;21.590;2023-06-14T17:52:34;100005.71;;;16.10;100.00
51526;BME280;37611;51.794;21.590;2023-06-14T17:56:36;100005.85;;;16.10;100.00
51526;BME280;37611;51.794;21.590;2023-06-14T18:00:38;100006.48;;;16.08;100.00
51526;BME280;37611;51.794;21.590;2023-06-14T18:04:39;100007.11;;;16.02;100.00
51526;BME280;37611;51.794;21.590;2023-06-14T18:08:41;100011.02;;;16.01;100.00
51526;BME280;37611;51.794;21.590;2023-06-14T18:12:45;100013.33;;;15.95;100.00
51526;BME280;37611;51.794;21.590;2023-06-14T18:16:46;100016.48;;;15.84;100.00
51526;BME280;37611;51.794;21.590;2023-06-14T18:20:48;100018.38;;;15.81;100.00
51526;BME280;37611;51.794;21.590;2023-06-14T18:24:50;100018.05;;;15.81;100.00
51526;BME280;37611;51.794;21.590;2023-06-14T18:28:56;100016.45;;;15.78;100.00
51526;BME280;37611;51.794;21.590;2023-06-14T18:32:58;100016.28;;;15.71;100.00
51526;BME280;37611;51.794;21.590;2023-06-14T18:36:59;100015.88;;;15.60;100.00
51526;BME280;37611;51.794;21.590;2023-06-14T18:41:02;100018.20;;;15.57;100.00
51526;BME280;37611;51.794;21.590;2023-06-14T18:45:05;100014.35;;;15.53;100.00
51526;BME280;37611;51.794;21.590;2023-06-14T18:49:07;100015.12;;;15.49;100.00
51526;BME280;37611;51.794;21.590;2023-06-14T18:53:09;100015.15;;;15.45;100.00
51526;BME280;37611;51.794;21.590;2023-06-14T18:57:11;100012.44;;;15.41;100.00
51526;BME280;37611;51.794;21.590;2023-06-14T19:01:13;100018.65;;;15.39;100.00
51526;BME280;37611;51.794;21.590;2023-06-14T19:05:15;100025.95;;;15.34;100.00
51526;BME280;37611;51.794;21.590;2023-06-14T19:09:16;100028.48;;;15.25;100.00
51526;BME280;37611;51.794;21.590;2023-06-14T19:13:21;100024.63;;;15.13;100.00
51526;BME280;37611;51.794;21.590;2023-06-14T19:17:25;100031.11;;;15.11;100.00
51526;BME280;37611;51.794;21.590;2023-06-14T19:21:27;100033.61;;;15.05;100.00
51526;BME280;37611;51.794;21.590;2023-06-14T19:25:29;100031.60;;;15.03;100.00
51526;BME280;37611;51.794;21.590;2023-06-14T19:29:31;100032.98;;;15.03;100.00
51526;BME280;37611;51.794;21.590;2023-06-14T19:33:34;100033.21;;;15.02;100.00
51526;BME280;37611;51.794;21.590;2023-06-14T19:37:36;100035.54;;;15.02;100.00
51526;BME280;37611;51.794;21.590;2023-06-14T19:41:38;100034.98;;;15.00;100.00
51526;BME280;37611;51.794;21.590;2023-06-14T19:45:39;100036.52;;;15.00;100.00
51526;BME280;37611;51.794;21.590;2023-06-14T19:49:41;100038.11;;;14.98;100.00
51526;BME280;37611;51.794;21.590;2023-06-14T19:53:43;100035.11;;;14.93;100.00
51526;BME280;37611;51.794;21.590;2023-06-14T19:57:46;100036.28;;;14.92;100.00
51526;BME280;37611;51.794;21.590;2023-06-14T20:01:47;100038.76;;;14.94;100.00
51526;BME280;37611;51.794;21.590;2023-06-14T20:05:49;100038.67;;;14.98;100.00
51526;BME280;37611;51.794;21.590;2023-06-14T20:09:53;100036.83;;;15.02;100.00
51526;BME280;37611;51.794;21.590;2023-06-14T20:13:56;100037.27;;;15.04;100.00
51526;BME280;37611;51.794;21.590;2023-06-14T20:17:58;100041.14;;;15.04;100.00
51526;BME280;37611;51.794;21.590;2023-06-14T20:22:00;100046.55;;;15.01;100.00
51526;BME280;37611;51.794;21.590;2023-06-14T20:26:01;100052.67;;;15.00;100.00
51526;BME280;37611;51.794;21.590;2023-06-14T20:30:04;100054.42;;;14.99;100.00
51526;BME280;37611;51.794;21.590;2023-06-14T20:34:06;100059.30;;;15.00;100.00
51526;BME280;37611;51.794;21.590;2023-06-14T20:38:08;100060.86;;;14.98;100.00
51526;BME280;37611;51.794;21.590;2023-06-14T20:42:09;100060.14;;;14.93;100.00
51526;BME280;37611;51.794;21.590;2023-06-14T20:46:13;100054.59;;;14.90;100.00
51526;BME280;37611;51.794;21.590;2023-06-14T20:50:15;100051.91;;;14.90;100.00
51526;BME280;37611;51.794;21.590;2023-06-14T20:54:17;100054.86;;;14.89;100.00
51526;BME280;37611;51.794;21.590;2023-06-14T20:58:19;100054.73;;;14.88;100.00